Terminal Aerodrome Forecast
Issued by NWS

Home | Current Version | Previous Version | Graphics & Text | Print | Product List | Glossary On
Versions: 1 2 3 4 5 6 7 8 9 10 11 12 13 14 15 16 17
000
FTUS43 KICT 192236 AAC
TAFSLN
TAF AMD
KSLN 192236Z 1923/2018 06013G20KT P6SM -RA SCT015 SCT030 BKN050
     FM200100 07013G20KT P6SM -RA SCT009 BKN015
     FM200400 01014KT P6SM -RA OVC008
     FM200800 01014KT P6SM OVC007=

USA.gov is the U.S. government's official web portal to all federal, state and local government web resources and services.